RJNS(TAF)
8/13 2h
TAF RJNS 121705Z 1218/1400 14008KT 6000 -SHRA FEW008 BKN012 TEMPO
1218/1303 2000 SHRA BR FEW001 BKN002 BECMG 1300/1302
18022KT TEMPO 1303/1306 18025G40KT 1500 +SHRA BR FEW002
BKN004 FEW020CB BECMG 1306/1309 26012KT TEMPO 1306/1312
3000 SHRA BR FEW002 BKN004=
戻る
トップページへ戻る
IMOC Co,.Ltd.